sensor_id;sensor_type;location;lat;lon;timestamp;pressure;altitude;pressure_sealevel;temperature;humidity
45078;BME280;60508;42.622;25.416;2023-02-01T00:02:18;96699.34;;;2.00;79.52
45078;BME280;60508;42.622;25.416;2023-02-01T00:04:45;96692.41;;;1.99;79.57
45078;BME280;60508;42.622;25.416;2023-02-01T00:07:10;96690.00;;;2.04;79.84
45078;BME280;60508;42.622;25.416;2023-02-01T00:09:36;96702.75;;;2.15;79.31
45078;BME280;60508;42.622;25.416;2023-02-01T00:12:03;96702.13;;;2.13;79.49
45078;BME280;60508;42.622;25.416;2023-02-01T00:14:29;96704.69;;;2.28;79.25
45078;BME280;60508;42.622;25.416;2023-02-01T00:16:55;96701.41;;;2.26;79.21
45078;BME280;60508;42.622;25.416;2023-02-01T00:19:21;96705.28;;;2.30;78.34
45078;BME280;60508;42.622;25.416;2023-02-01T00:21:47;96707.56;;;2.33;76.55
45078;BME280;60508;42.622;25.416;2023-02-01T00:24:13;96712.81;;;2.27;76.64
45078;BME280;60508;42.622;25.416;2023-02-01T00:26:42;96705.38;;;2.15;77.05
45078;BME280;60508;42.622;25.416;2023-02-01T00:29:14;96718.03;;;2.13;77.23
45078;BME280;60508;42.622;25.416;2023-02-01T00:31:42;96719.69;;;2.21;77.19
45078;BME280;60508;42.622;25.416;2023-02-01T00:34:11;96721.34;;;2.22;76.84
45078;BME280;60508;42.622;25.416;2023-02-01T00:36:38;96712.13;;;2.18;76.58
45078;BME280;60508;42.622;25.416;2023-02-01T00:39:04;96709.47;;;2.18;77.36
45078;BME280;60508;42.622;25.416;2023-02-01T00:41:30;96710.94;;;2.21;77.26
45078;BME280;60508;42.622;25.416;2023-02-01T00:43:57;96711.59;;;2.29;76.76
45078;BME280;60508;42.622;25.416;2023-02-01T00:46:23;96706.56;;;2.34;76.46
45078;BME280;60508;42.622;25.416;2023-02-01T00:48:49;96694.69;;;2.30;76.20
45078;BME280;60508;42.622;25.416;2023-02-01T00:51:18;96701.63;;;2.31;75.86
45078;BME280;60508;42.622;25.416;2023-02-01T00:53:44;96714.47;;;2.28;75.31
45078;BME280;60508;42.622;25.416;2023-02-01T00:56:11;96720.81;;;2.33;75.10
45078;BME280;60508;42.622;25.416;2023-02-01T00:58:37;96703.91;;;2.34;75.08
45078;BME280;60508;42.622;25.416;2023-02-01T01:01:12;96704.91;;;2.33;74.85
45078;BME280;60508;42.622;25.416;2023-02-01T01:03:43;96698.56;;;2.28;74.00
45078;BME280;60508;42.622;25.416;2023-02-01T01:06:13;96695.31;;;2.32;72.60
45078;BME280;60508;42.622;25.416;2023-02-01T01:08:40;96695.91;;;2.28;72.08
45078;BME280;60508;42.622;25.416;2023-02-01T01:11:12;96693.00;;;2.23;71.54
45078;BME280;60508;42.622;25.416;2023-02-01T01:13:39;96697.25;;;2.17;71.58
45078;BME280;60508;42.622;25.416;2023-02-01T01:16:08;96688.53;;;2.23;71.69
45078;BME280;60508;42.622;25.416;2023-02-01T01:18:34;96687.50;;;2.24;70.91
45078;BME280;60508;42.622;25.416;2023-02-01T01:21:01;96701.00;;;2.29;71.33
45078;BME280;60508;42.622;25.416;2023-02-01T01:23:27;96699.19;;;2.30;70.82
45078;BME280;60508;42.622;25.416;2023-02-01T01:25:54;96701.41;;;2.26;71.54
45078;BME280;60508;42.622;25.416;2023-02-01T01:28:20;96686.22;;;2.13;71.29
45078;BME280;60508;42.622;25.416;2023-02-01T01:30:46;96689.53;;;2.22;71.99
45078;BME280;60508;42.622;25.416;2023-02-01T01:33:12;96686.22;;;2.13;71.41
45078;BME280;60508;42.622;25.416;2023-02-01T01:35:37;96696.03;;;2.19;71.68
45078;BME280;60508;42.622;25.416;2023-02-01T01:38:03;96701.28;;;2.13;72.02
45078;BME280;60508;42.622;25.416;2023-02-01T01:40:30;96696.63;;;2.15;71.72
45078;BME280;60508;42.622;25.416;2023-02-01T01:42:57;96687.66;;;2.16;71.21
45078;BME280;60508;42.622;25.416;2023-02-01T01:45:30;96694.34;;;2.12;71.24
45078;BME280;60508;42.622;25.416;2023-02-01T01:48:22;96695.84;;;2.21;70.71
45078;BME280;60508;42.622;25.416;2023-02-01T01:50:52;96696.22;;;2.18;70.42
45078;BME280;60508;42.622;25.416;2023-02-01T01:53:24;96706.25;;;2.23;70.14
45078;BME280;60508;42.622;25.416;2023-02-01T01:55:52;96698.94;;;2.25;69.92
45078;BME280;60508;42.622;25.416;2023-02-01T01:58:22;96704.44;;;2.23;69.03
45078;BME280;60508;42.622;25.416;2023-02-01T02:00:50;96700.75;;;2.24;69.67
45078;BME280;60508;42.622;25.416;2023-02-01T02:03:20;96694.16;;;2.13;70.13
45078;BME280;60508;42.622;25.416;2023-02-01T02:05:49;96697.69;;;2.21;69.79
45078;BME280;60508;42.622;25.416;2023-02-01T02:08:17;96697.06;;;2.18;70.40
45078;BME280;60508;42.622;25.416;2023-02-01T02:10:43;96704.25;;;2.25;69.62
45078;BME280;60508;42.622;25.416;2023-02-01T02:13:38;96705.47;;;2.29;69.36
45078;BME280;60508;42.622;25.416;2023-02-01T02:19:16;96702.22;;;2.27;69.37
45078;BME280;60508;42.622;25.416;2023-02-01T02:27:05;96687.88;;;2.21;68.20
45078;BME280;60508;42.622;25.416;2023-02-01T02:33:12;96687.66;;;2.16;67.63
45078;BME280;60508;42.622;25.416;2023-02-01T02:38:20;96690.50;;;2.14;67.34
45078;BME280;60508;42.622;25.416;2023-02-01T02:41:01;96678.00;;;2.08;67.35
45078;BME280;60508;42.622;25.416;2023-02-01T02:43:52;96695.16;;;2.12;66.88
45078;BME280;60508;42.622;25.416;2023-02-01T02:46:41;96693.53;;;2.11;66.11
45078;BME280;60508;42.622;25.416;2023-02-01T02:49:45;96691.72;;;2.12;66.30
45078;BME280;60508;42.622;25.416;2023-02-01T02:52:39;96696.63;;;2.15;65.65
45078;BME280;60508;42.622;25.416;2023-02-01T02:55:28;96698.44;;;2.14;65.22
45078;BME280;60508;42.622;25.416;2023-02-01T02:57:56;96692.94;;;2.16;65.23
45078;BME280;60508;42.622;25.416;2023-02-01T03:00:44;96689.88;;;2.12;65.27
45078;BME280;60508;42.622;25.416;2023-02-01T03:03:28;96693.03;;;2.01;65.58
45078;BME280;60508;42.622;25.416;2023-02-01T03:06:17;96709.56;;;2.03;65.71
45078;BME280;60508;42.622;25.416;2023-02-01T03:08:45;96693.84;;;2.01;64.88
45078;BME280;60508;42.622;25.416;2023-02-01T03:11:13;96693.38;;;1.91;65.20
45078;BME280;60508;42.622;25.416;2023-02-01T03:13:57;96701.88;;;1.87;65.14
45078;BME280;60508;42.622;25.416;2023-02-01T03:16:36;96705.81;;;1.91;64.69
45078;BME280;60508;42.622;25.416;2023-02-01T03:19:20;96702.00;;;2.00;64.57
45078;BME280;60508;42.622;25.416;2023-02-01T03:21:58;96696.41;;;1.88;64.76
45078;BME280;60508;42.622;25.416;2023-02-01T03:24:44;96698.81;;;1.83;61.17
45078;BME280;60508;42.622;25.416;2023-02-01T03:27:20;96708.25;;;1.92;60.51
45078;BME280;60508;42.622;25.416;2023-02-01T03:30:00;96717.59;;;1.88;59.84
45078;BME280;60508;42.622;25.416;2023-02-01T03:32:28;96703.97;;;1.91;59.05
45078;BME280;60508;42.622;25.416;2023-02-01T03:34:54;96712.28;;;1.88;59.45
45078;BME280;60508;42.622;25.416;2023-02-01T03:37:25;96720.88;;;1.90;60.07
45078;BME280;60508;42.622;25.416;2023-02-01T03:40:06;96703.47;;;1.81;58.82
45078;BME280;60508;42.622;25.416;2023-02-01T03:42:37;96732.13;;;1.92;59.26
45078;BME280;60508;42.622;25.416;2023-02-01T03:45:12;96731.69;;;1.95;60.14
45078;BME280;60508;42.622;25.416;2023-02-01T03:47:42;96727.19;;;1.89;59.97
45078;BME280;60508;42.622;25.416;2023-02-01T03:50:15;96717.66;;;1.73;60.07
45078;BME280;60508;42.622;25.416;2023-02-01T03:52:53;96714.44;;;1.78;59.00
45078;BME280;60508;42.622;25.416;2023-02-01T03:55:22;96731.84;;;1.87;58.44
45078;BME280;60508;42.622;25.416;2023-02-01T03:57:57;96726.53;;;1.87;57.52
45078;BME280;60508;42.622;25.416;2023-02-01T04:00:26;96732.22;;;1.84;57.46
45078;BME280;60508;42.622;25.416;2023-02-01T04:02:54;96727.38;;;1.88;56.32
45078;BME280;60508;42.622;25.416;2023-02-01T04:05:21;96740.06;;;1.92;57.44
45078;BME280;60508;42.622;25.416;2023-02-01T04:07:54;96745.38;;;1.92;56.82
45078;BME280;60508;42.622;25.416;2023-02-01T04:10:20;96737.66;;;1.97;56.46
45078;BME280;60508;42.622;25.416;2023-02-01T04:12:46;96746.97;;;1.93;56.62
45078;BME280;60508;42.622;25.416;2023-02-01T04:15:13;96736.56;;;1.92;56.77
45078;BME280;60508;42.622;25.416;2023-02-01T04:17:38;96746.78;;;1.95;56.78
45078;BME280;60508;42.622;25.416;2023-02-01T04:20:05;96749.44;;;1.95;56.62
45078;BME280;60508;42.622;25.416;2023-02-01T04:22:31;96740.69;;;1.94;56.33
45078;BME280;60508;42.622;25.416;2023-02-01T04:24:57;96741.25;;;1.90;57.41
45078;BME280;60508;42.622;25.416;2023-02-01T04:27:23;96746.72;;;1.88;57.32
45078;BME280;60508;42.622;25.416;2023-02-01T04:29:49;96734.56;;;1.94;57.62
45078;BME280;60508;42.622;25.416;2023-02-01T04:32:16;96741.25;;;1.90;58.27
45078;BME280;60508;42.622;25.416;2023-02-01T04:34:42;96743.53;;;1.93;58.40
45078;BME280;60508;42.622;25.416;2023-02-01T04:37:08;96743.47;;;1.86;58.74
45078;BME280;60508;42.622;25.416;2023-02-01T04:39:34;96741.88;;;1.92;59.67
45078;BME280;60508;42.622;25.416;2023-02-01T04:42:00;96728.63;;;1.92;59.74
45078;BME280;60508;42.622;25.416;2023-02-01T04:44:26;96728.38;;;1.87;59.71
45078;BME280;60508;42.622;25.416;2023-02-01T04:46:53;96729.38;;;1.86;59.73
45078;BME280;60508;42.622;25.416;2023-02-01T04:49:18;96725.28;;;1.83;60.33
45078;BME280;60508;42.622;25.416;2023-02-01T04:51:47;96726.97;;;1.69;60.92
45078;BME280;60508;42.622;25.416;2023-02-01T04:54:14;96732.25;;;1.48;61.22
45078;BME280;60508;42.622;25.416;2023-02-01T04:56:40;96743.03;;;1.46;61.98
45078;BME280;60508;42.622;25.416;2023-02-01T04:59:06;96731.09;;;1.35;61.81
45078;BME280;60508;42.622;25.416;2023-02-01T05:01:32;96728.88;;;1.39;61.48
45078;BME280;60508;42.622;25.416;2023-02-01T05:03:59;96735.22;;;1.38;62.22
45078;BME280;60508;42.622;25.416;2023-02-01T05:06:26;96735.13;;;1.31;63.15
45078;BME280;60508;42.622;25.416;2023-02-01T05:08:52;96740.88;;;1.35;62.72
45078;BME280;60508;42.622;25.416;2023-02-01T05:11:18;96743.34;;;1.36;62.09
45078;BME280;60508;42.622;25.416;2023-02-01T05:14:03;96741.53;;;1.22;62.34
45078;BME280;60508;42.622;25.416;2023-02-01T05:16:29;96747.63;;;1.22;62.66
45078;BME280;60508;42.622;25.416;2023-02-01T05:18:55;96751.94;;;1.23;62.13
45078;BME280;60508;42.622;25.416;2023-02-01T05:21:21;96734.34;;;1.16;62.59
45078;BME280;60508;42.622;25.416;2023-02-01T05:23:47;96760.69;;;1.24;62.48
45078;BME280;60508;42.622;25.416;2023-02-01T05:26:32;96757.22;;;1.23;62.02
45078;BME280;60508;42.622;25.416;2023-02-01T05:28:59;96769.66;;;1.23;61.76
45078;BME280;60508;42.622;25.416;2023-02-01T05:31:25;96764.38;;;1.23;61.37
45078;BME280;60508;42.622;25.416;2023-02-01T05:33:52;96770.19;;;1.18;62.28
45078;BME280;60508;42.622;25.416;2023-02-01T05:36:18;96773.28;;;1.22;62.44
45078;BME280;60508;42.622;25.416;2023-02-01T05:38:44;96776.84;;;1.29;61.02
45078;BME280;60508;42.622;25.416;2023-02-01T05:41:10;96773.09;;;1.38;60.64
45078;BME280;60508;42.622;25.416;2023-02-01T05:43:36;96776.66;;;1.45;60.72
45078;BME280;60508;42.622;25.416;2023-02-01T05:46:02;96780.56;;;1.50;60.66
45078;BME280;60508;42.622;25.416;2023-02-01T05:48:28;96773.03;;;1.53;61.39
45078;BME280;60508;42.622;25.416;2023-02-01T05:50:53;96773.03;;;1.68;59.53
45078;BME280;60508;42.622;25.416;2023-02-01T05:53:19;96778.84;;;1.78;59.63
45078;BME280;60508;42.622;25.416;2023-02-01T05:55:46;96783.00;;;1.88;59.80
45078;BME280;60508;42.622;25.416;2023-02-01T05:58:11;96788.88;;;2.05;60.32
45078;BME280;60508;42.622;25.416;2023-02-01T06:00:38;96780.38;;;2.09;59.48
45078;BME280;60508;42.622;25.416;2023-02-01T06:03:05;96778.72;;;2.08;59.71
45078;BME280;60508;42.622;25.416;2023-02-01T06:05:31;96772.34;;;2.03;59.76
45078;BME280;60508;42.622;25.416;2023-02-01T06:07:57;96771.06;;;1.98;60.20
45078;BME280;60508;42.622;25.416;2023-02-01T06:10:23;96781.50;;;2.00;60.01
45078;BME280;60508;42.622;25.416;2023-02-01T06:12:50;96788.63;;;1.99;60.18
45078;BME280;60508;42.622;25.416;2023-02-01T06:15:16;96784.59;;;2.04;59.98
45078;BME280;60508;42.622;25.416;2023-02-01T06:17:44;96777.53;;;2.11;60.10
45078;BME280;60508;42.622;25.416;2023-02-01T06:20:12;96789.00;;;2.18;58.56
45078;BME280;60508;42.622;25.416;2023-02-01T06:22:39;96791.06;;;2.23;58.88
45078;BME280;60508;42.622;25.416;2023-02-01T06:25:07;96797.84;;;2.25;58.86
45078;BME280;60508;42.622;25.416;2023-02-01T06:27:33;96796.44;;;2.29;58.62
45078;BME280;60508;42.622;25.416;2023-02-01T06:30:00;96798.09;;;2.30;58.78
45078;BME280;60508;42.622;25.416;2023-02-01T06:32:26;96795.09;;;2.40;58.82
45078;BME280;60508;42.622;25.416;2023-02-01T06:34:53;96788.81;;;2.41;59.10
45078;BME280;60508;42.622;25.416;2023-02-01T06:37:19;96791.31;;;2.49;58.23
45078;BME280;60508;42.622;25.416;2023-02-01T06:39:45;96799.50;;;2.54;58.57
45078;BME280;60508;42.622;25.416;2023-02-01T06:42:12;96799.75;;;2.60;58.57
45078;BME280;60508;42.622;25.416;2023-02-01T06:44:38;96791.75;;;2.53;58.33
45078;BME280;60508;42.622;25.416;2023-02-01T06:47:04;96794.41;;;2.53;58.17
45078;BME280;60508;42.622;25.416;2023-02-01T06:49:31;96805.25;;;2.58;58.24
45078;BME280;60508;42.622;25.416;2023-02-01T06:51:57;96806.47;;;2.55;58.32
45078;BME280;60508;42.622;25.416;2023-02-01T06:54:26;96801.03;;;2.64;58.16
45078;BME280;60508;42.622;25.416;2023-02-01T06:56:53;96811.00;;;2.62;58.32
45078;BME280;60508;42.622;25.416;2023-02-01T06:59:19;96809.75;;;2.58;58.03
45078;BME280;60508;42.622;25.416;2023-02-01T07:01:45;96817.75;;;2.64;58.51
45078;BME280;60508;42.622;25.416;2023-02-01T07:04:12;96822.75;;;2.81;56.43
45078;BME280;60508;42.622;25.416;2023-02-01T07:06:39;96823.09;;;2.71;55.49
45078;BME280;60508;42.622;25.416;2023-02-01T07:09:06;96809.38;;;2.61;56.31
45078;BME280;60508;42.622;25.416;2023-02-01T07:11:32;96813.97;;;2.52;56.84
45078;BME280;60508;42.622;25.416;2023-02-01T07:13:58;96815.63;;;2.53;56.98
45078;BME280;60508;42.622;25.416;2023-02-01T07:16:25;96825.75;;;2.43;57.68
45078;BME280;60508;42.622;25.416;2023-02-01T07:18:52;96827.19;;;2.45;57.82
45078;BME280;60508;42.622;25.416;2023-02-01T07:21:19;96832.63;;;2.59;58.97
45078;BME280;60508;42.622;25.416;2023-02-01T07:23:46;96823.63;;;2.60;58.85
45078;BME280;60508;42.622;25.416;2023-02-01T07:26:13;96844.47;;;2.63;59.83
45078;BME280;60508;42.622;25.416;2023-02-01T07:28:40;96844.47;;;2.63;60.53
45078;BME280;60508;42.622;25.416;2023-02-01T07:31:08;96848.72;;;2.57;61.79
45078;BME280;60508;42.622;25.416;2023-02-01T07:33:35;96848.44;;;2.52;62.35
45078;BME280;60508;42.622;25.416;2023-02-01T07:36:03;96858.75;;;2.40;63.62
45078;BME280;60508;42.622;25.416;2023-02-01T07:38:30;96851.41;;;2.42;63.18
45078;BME280;60508;42.622;25.416;2023-02-01T07:41:00;96845.75;;;2.45;62.74
45078;BME280;60508;42.622;25.416;2023-02-01T07:43:27;96843.88;;;2.39;62.45
45078;BME280;60508;42.622;25.416;2023-02-01T07:45:54;96854.53;;;2.46;61.15
45078;BME280;60508;42.622;25.416;2023-02-01T07:48:22;96862.38;;;2.54;61.67
45078;BME280;60508;42.622;25.416;2023-02-01T07:50:52;96851.81;;;2.61;62.03
45078;BME280;60508;42.622;25.416;2023-02-01T07:53:23;96861.66;;;2.67;61.32
45078;BME280;60508;42.622;25.416;2023-02-01T07:55:49;96854.31;;;2.69;61.41
45078;BME280;60508;42.622;25.416;2023-02-01T07:58:15;96869.72;;;2.80;61.79
45078;BME280;60508;42.622;25.416;2023-02-01T08:00:41;96856.34;;;2.67;61.72
45078;BME280;60508;42.622;25.416;2023-02-01T08:03:26;96860.25;;;2.71;61.41
45078;BME280;60508;42.622;25.416;2023-02-01T08:05:55;96857.59;;;2.71;61.66
45078;BME280;60508;42.622;25.416;2023-02-01T08:08:22;96870.91;;;2.78;62.15
45078;BME280;60508;42.622;25.416;2023-02-01T08:10:48;96869.56;;;2.88;61.52
45078;BME280;60508;42.622;25.416;2023-02-01T08:13:14;96841.09;;;2.76;60.92
45078;BME280;60508;42.622;25.416;2023-02-01T08:15:40;96861.41;;;2.90;60.71
45078;BME280;60508;42.622;25.416;2023-02-01T08:18:06;96845.50;;;2.90;59.92
45078;BME280;60508;42.622;25.416;2023-02-01T08:20:33;96858.38;;;2.93;60.86
45078;BME280;60508;42.622;25.416;2023-02-01T08:23:01;96867.13;;;2.87;61.04
45078;BME280;60508;42.622;25.416;2023-02-01T08:25:27;96863.50;;;2.95;61.03
45078;BME280;60508;42.622;25.416;2023-02-01T08:27:53;96876.63;;;3.03;60.81
45078;BME280;60508;42.622;25.416;2023-02-01T08:30:20;96868.91;;;3.08;61.14
45078;BME280;60508;42.622;25.416;2023-02-01T08:32:47;96880.41;;;3.15;61.01
45078;BME280;60508;42.622;25.416;2023-02-01T08:35:13;96878.56;;;3.16;61.11
45078;BME280;60508;42.622;25.416;2023-02-01T08:37:39;96876.34;;;3.19;61.41
45078;BME280;60508;42.622;25.416;2023-02-01T08:40:06;96883.53;;;3.25;61.31
45078;BME280;60508;42.622;25.416;2023-02-01T08:42:32;96884.78;;;3.29;61.25
45078;BME280;60508;42.622;25.416;2023-02-01T08:45:25;96867.16;;;3.22;60.76
45078;BME280;60508;42.622;25.416;2023-02-01T08:47:52;96884.72;;;3.23;61.65
45078;BME280;60508;42.622;25.416;2023-02-01T08:50:19;96876.09;;;3.14;62.84
45078;BME280;60508;42.622;25.416;2023-02-01T08:52:46;96869.75;;;3.08;63.44
45078;BME280;60508;42.622;25.416;2023-02-01T08:55:13;96886.94;;;3.19;63.76
45078;BME280;60508;42.622;25.416;2023-02-01T08:57:40;96881.69;;;3.26;63.67
45078;BME280;60508;42.622;25.416;2023-02-01T09:00:09;96879.81;;;3.20;64.12
45078;BME280;60508;42.622;25.416;2023-02-01T09:02:36;96875.59;;;3.32;63.82
45078;BME280;60508;42.622;25.416;2023-02-01T09:05:03;96866.88;;;3.45;63.55
45078;BME280;60508;42.622;25.416;2023-02-01T09:07:30;96853.91;;;3.63;62.51
45078;BME280;60508;42.622;25.416;2023-02-01T09:09:56;96856.41;;;3.72;62.40
45078;BME280;60508;42.622;25.416;2023-02-01T09:12:28;96855.59;;;3.78;62.72
45078;BME280;60508;42.622;25.416;2023-02-01T09:14:55;96868.25;;;3.76;62.85
45078;BME280;60508;42.622;25.416;2023-02-01T09:17:21;96859.44;;;3.69;63.94
45078;BME280;60508;42.622;25.416;2023-02-01T09:19:48;96860.66;;;3.66;64.56
45078;BME280;60508;42.622;25.416;2023-02-01T09:22:16;96856.16;;;3.66;64.91
45078;BME280;60508;42.622;25.416;2023-02-01T09:24:42;96843.03;;;3.58;65.06
45078;BME280;60508;42.622;25.416;2023-02-01T09:27:09;96858.00;;;3.66;65.35
45078;BME280;60508;42.622;25.416;2023-02-01T09:29:35;96857.03;;;3.74;65.17
45078;BME280;60508;42.622;25.416;2023-02-01T09:32:01;96856.44;;;3.78;65.18
45078;BME280;60508;42.622;25.416;2023-02-01T09:34:28;96854.38;;;3.80;65.06
45078;BME280;60508;42.622;25.416;2023-02-01T09:36:54;96860.31;;;3.82;65.26
45078;BME280;60508;42.622;25.416;2023-02-01T09:39:20;96851.09;;;3.72;65.80
45078;BME280;60508;42.622;25.416;2023-02-01T09:41:55;96852.28;;;3.69;66.69
45078;BME280;60508;42.622;25.416;2023-02-01T09:47:15;96847.19;;;3.74;67.33
45078;BME280;60508;42.622;25.416;2023-02-01T09:49:53;96849.47;;;3.77;67.35
45078;BME280;60508;42.622;25.416;2023-02-01T09:52:44;96856.44;;;3.85;67.48
45078;BME280;60508;42.622;25.416;2023-02-01T09:55:37;96848.09;;;3.88;68.23
45078;BME280;60508;42.622;25.416;2023-02-01T09:58:07;96842.97;;;3.93;67.56
45078;BME280;60508;42.622;25.416;2023-02-01T10:00:37;96836.47;;;3.96;67.77
45078;BME280;60508;42.622;25.416;2023-02-01T10:03:07;96835.03;;;4.07;67.75
45078;BME280;60508;42.622;25.416;2023-02-01T10:08:38;96819.28;;;4.05;67.66
45078;BME280;60508;42.622;25.416;2023-02-01T10:14:38;96823.66;;;4.33;66.77
45078;BME280;60508;42.622;25.416;2023-02-01T10:20:22;96822.84;;;4.52;65.88
45078;BME280;60508;42.622;25.416;2023-02-01T10:25:32;96794.00;;;4.56;65.72
45078;BME280;60508;42.622;25.416;2023-02-01T10:28:03;96787.25;;;4.67;65.43
45078;BME280;60508;42.622;25.416;2023-02-01T10:30:37;96790.69;;;4.87;64.77
45078;BME280;60508;42.622;25.416;2023-02-01T10:33:15;96779.00;;;5.02;64.99
45078;BME280;60508;42.622;25.416;2023-02-01T10:35:44;96767.69;;;5.13;64.45
45078;BME280;60508;42.622;25.416;2023-02-01T10:38:24;96776.28;;;5.15;63.94
45078;BME280;60508;42.622;25.416;2023-02-01T10:40:53;96771.59;;;5.10;64.27
45078;BME280;60508;42.622;25.416;2023-02-01T10:43:21;96777.50;;;5.19;64.69
45078;BME280;60508;42.622;25.416;2023-02-01T10:45:47;96777.88;;;5.29;63.67
45078;BME280;60508;42.622;25.416;2023-02-01T10:48:14;96777.03;;;5.42;62.48
45078;BME280;60508;42.622;25.416;2023-02-01T10:50:59;96776.38;;;5.60;60.11
45078;BME280;60508;42.622;25.416;2023-02-01T10:53:33;96772.19;;;5.71;59.11
45078;BME280;60508;42.622;25.416;2023-02-01T10:56:10;96777.53;;;5.71;59.08
45078;BME280;60508;42.622;25.416;2023-02-01T10:58:44;96758.56;;;5.99;58.42
45078;BME280;60508;42.622;25.416;2023-02-01T11:01:17;96762.63;;;6.02;58.35
45078;BME280;60508;42.622;25.416;2023-02-01T11:03:57;96760.47;;;6.17;57.78
45078;BME280;60508;42.622;25.416;2023-02-01T11:08:56;96758.63;;;7.49;52.85
45078;BME280;60508;42.622;25.416;2023-02-01T11:11:23;96755.13;;;7.67;51.92
45078;BME280;60508;42.622;25.416;2023-02-01T11:13:58;96746.72;;;7.82;51.87
45078;BME280;60508;42.622;25.416;2023-02-01T11:16:37;96733.03;;;7.72;52.43
45078;BME280;60508;42.622;25.416;2023-02-01T11:19:04;96739.47;;;7.71;54.13
45078;BME280;60508;42.622;25.416;2023-02-01T11:21:31;96720.19;;;7.80;54.04
45078;BME280;60508;42.622;25.416;2023-02-01T11:24:04;96724.69;;;8.10;50.99
45078;BME280;60508;42.622;25.416;2023-02-01T11:26:32;96727.00;;;8.07;49.44
45078;BME280;60508;42.622;25.416;2023-02-01T11:29:03;96720.53;;;8.14;49.36
45078;BME280;60508;42.622;25.416;2023-02-01T11:31:30;96718.44;;;8.16;49.72
45078;BME280;60508;42.622;25.416;2023-02-01T11:34:05;96708.88;;;8.09;50.57
45078;BME280;60508;42.622;25.416;2023-02-01T11:36:33;96718.06;;;8.13;50.62
45078;BME280;60508;42.622;25.416;2023-02-01T11:39:20;96705.84;;;8.71;50.35
45078;BME280;60508;42.622;25.416;2023-02-01T11:44:38;96700.56;;;9.11;47.42
45078;BME280;60508;42.622;25.416;2023-02-01T11:47:28;96699.75;;;9.52;46.43
45078;BME280;60508;42.622;25.416;2023-02-01T11:49:57;96698.66;;;10.10;44.39
45078;BME280;60508;42.622;25.416;2023-02-01T11:53:05;96687.16;;;11.00;43.78
45078;BME280;60508;42.622;25.416;2023-02-01T11:59:03;96691.91;;;13.15;36.79
45078;BME280;60508;42.622;25.416;2023-02-01T12:13:15;96690.06;;;11.59;39.14
45078;BME280;60508;42.622;25.416;2023-02-01T12:24:31;96682.09;;;11.69;39.63
45078;BME280;60508;42.622;25.416;2023-02-01T12:43:02;96656.28;;;12.28;41.12
45078;BME280;60508;42.622;25.416;2023-02-01T12:45:38;96652.72;;;11.63;42.18
45078;BME280;60508;42.622;25.416;2023-02-01T12:51:14;96651.47;;;11.48;43.26
45078;BME280;60508;42.622;25.416;2023-02-01T12:56:26;96654.16;;;13.21;40.23
45078;BME280;60508;42.622;25.416;2023-02-01T12:58:58;96655.91;;;15.32;35.93
45078;BME280;60508;42.622;25.416;2023-02-01T13:01:33;96651.19;;;16.03;33.85
45078;BME280;60508;42.622;25.416;2023-02-01T13:04:34;96653.09;;;17.25;32.49
45078;BME280;60508;42.622;25.416;2023-02-01T13:07:16;96644.44;;;19.73;29.23
45078;BME280;60508;42.622;25.416;2023-02-01T13:09:51;96652.13;;;22.65;26.20
45078;BME280;60508;42.622;25.416;2023-02-01T13:12:32;96661.44;;;25.52;21.90
45078;BME280;60508;42.622;25.416;2023-02-01T13:15:40;96653.13;;;23.85;21.55
45078;BME280;60508;42.622;25.416;2023-02-01T13:18:14;96646.41;;;20.54;25.26
45078;BME280;60508;42.622;25.416;2023-02-01T13:21:10;96646.81;;;21.90;24.67
45078;BME280;60508;42.622;25.416;2023-02-01T13:23:40;96650.78;;;20.18;24.58
45078;BME280;60508;42.622;25.416;2023-02-01T13:26:08;96647.25;;;21.17;23.83
45078;BME280;60508;42.622;25.416;2023-02-01T13:28:47;96642.13;;;21.64;24.08
45078;BME280;60508;42.622;25.416;2023-02-01T13:40:10;96640.59;;;14.92;30.78
45078;BME280;60508;42.622;25.416;2023-02-01T13:42:58;96645.09;;;13.37;32.46
45078;BME280;60508;42.622;25.416;2023-02-01T13:45:29;96644.81;;;12.81;33.98
45078;BME280;60508;42.622;25.416;2023-02-01T13:47:58;96658.22;;;12.33;34.26
45078;BME280;60508;42.622;25.416;2023-02-01T13:52:57;96639.19;;;10.69;38.49
45078;BME280;60508;42.622;25.416;2023-02-01T13:55:28;96647.09;;;10.08;38.98
45078;BME280;60508;42.622;25.416;2023-02-01T14:00:35;96627.16;;;9.01;41.70
45078;BME280;60508;42.622;25.416;2023-02-01T14:10:54;96639.81;;;7.75;43.68
45078;BME280;60508;42.622;25.416;2023-02-01T14:16:15;96632.88;;;7.56;44.88
45078;BME280;60508;42.622;25.416;2023-02-01T14:21:33;96627.91;;;7.29;44.46
45078;BME280;60508;42.622;25.416;2023-02-01T14:24:24;96631.13;;;7.19;46.54
45078;BME280;60508;42.622;25.416;2023-02-01T14:26:51;96623.66;;;7.09;47.04
45078;BME280;60508;42.622;25.416;2023-02-01T14:29:34;96636.34;;;6.95;43.07
45078;BME280;60508;42.622;25.416;2023-02-01T14:32:21;96632.81;;;6.83;43.41
45078;BME280;60508;42.622;25.416;2023-02-01T14:34:52;96630.78;;;6.60;43.15
45078;BME280;60508;42.622;25.416;2023-02-01T14:42:48;96637.53;;;6.63;44.57
45078;BME280;60508;42.622;25.416;2023-02-01T14:58:47;96635.56;;;6.33;44.17
45078;BME280;60508;42.622;25.416;2023-02-01T15:01:33;96633.31;;;6.30;43.75
45078;BME280;60508;42.622;25.416;2023-02-01T15:04:06;96647.88;;;6.34;41.62
45078;BME280;60508;42.622;25.416;2023-02-01T15:06:43;96655.88;;;6.34;43.01
45078;BME280;60508;42.622;25.416;2023-02-01T15:09:29;96648.31;;;6.31;43.45
45078;BME280;60508;42.622;25.416;2023-02-01T15:17:35;96660.28;;;6.21;43.97
45078;BME280;60508;42.622;25.416;2023-02-01T15:20:02;96665.47;;;6.16;44.06
45078;BME280;60508;42.622;25.416;2023-02-01T15:22:30;96671.03;;;6.15;43.94
45078;BME280;60508;42.622;25.416;2023-02-01T15:24:58;96661.34;;;6.20;43.44
45078;BME280;60508;42.622;25.416;2023-02-01T15:27:26;96659.53;;;6.14;43.52
45078;BME280;60508;42.622;25.416;2023-02-01T15:29:53;96673.84;;;6.20;43.64
45078;BME280;60508;42.622;25.416;2023-02-01T15:32:33;96658.31;;;6.17;44.67